createdAt,value
2022-11-16T00:02:50.990Z,80.84
2022-11-16T00:16:06.368Z,79.83
2022-11-16T00:18:33.596Z,79.83
2022-11-16T00:23:38.001Z,81.96
2022-11-16T00:26:09.810Z,79.84
2022-11-16T00:28:36.601Z,81.94
2022-11-16T00:31:05.992Z,81.50
2022-11-16T00:33:32.603Z,80.67
2022-11-16T00:36:30.186Z,81.41
2022-11-16T00:39:24.793Z,80.76
2022-11-16T00:42:13.188Z,81.15
2022-11-16T00:44:39.730Z,81.61
2022-11-16T00:47:06.251Z,81.55
2022-11-16T00:49:32.843Z,80.65
2022-11-16T00:51:59.365Z,81.33
2022-11-16T00:54:25.912Z,79.16
2022-11-16T00:57:07.529Z,78.03
2022-11-16T00:59:34.087Z,78.07
2022-11-16T01:02:00.635Z,78.75
2022-11-16T01:04:27.307Z,77.69
2022-11-16T01:07:25.138Z,81.25
2022-11-16T01:10:12.553Z,82.75
2022-11-16T01:12:39.658Z,81.31
2022-11-16T01:15:09.118Z,79.93
2022-11-16T01:17:37.726Z,80.93
2022-11-16T01:20:06.661Z,79.96
2022-11-16T01:22:36.251Z,81.80
2022-11-16T01:25:21.943Z,82.30
2022-11-16T01:27:48.533Z,85.44
2022-11-16T01:30:16.560Z,84.62
2022-11-16T01:32:43.224Z,83.55
2022-11-16T01:39:19.679Z,82.55
2022-11-16T01:41:46.784Z,81.29
2022-11-16T01:44:31.644Z,82.71
2022-11-16T01:47:06.709Z,82.42
2022-11-16T01:49:37.419Z,85.52
2022-11-16T01:52:10.353Z,83.89
2022-11-16T02:20:15.662Z,84.80
2022-11-16T02:23:12.245Z,81.76
2022-11-16T02:26:26.122Z,83.97
2022-11-16T02:32:03.314Z,85.19
2022-11-16T02:34:37.552Z,84.25
2022-11-16T02:37:07.837Z,83.23
2022-11-16T02:39:37.331Z,84.38
2022-11-16T02:42:08.352Z,84.62
2022-11-16T02:45:20.401Z,82.81
2022-11-16T02:50:52.868Z,83.77
2022-11-16T02:53:24.425Z,81.29
2022-11-16T02:55:51.364Z,80.52
2022-11-16T02:58:21.404Z,81.39
2022-11-16T03:01:25.215Z,83.31
2022-11-16T03:04:28.268Z,80.48
2022-11-16T03:06:58.284Z,81.48
2022-11-16T03:09:29.085Z,80.16
2022-11-16T03:12:00.849Z,81.46
2022-11-16T03:14:37.935Z,81.74
2022-11-16T03:17:08.265Z,86.95
2022-11-16T03:19:44.078Z,85.75
2022-11-16T03:22:42.410Z,84.40
2022-11-16T03:25:46.629Z,83.51
2022-11-16T03:29:14.098Z,85.54
2022-11-16T03:31:52.124Z,85.10
2022-11-16T03:34:21.865Z,86.64
2022-11-16T03:36:51.117Z,86.19
2022-11-16T03:39:25.632Z,86.40
2022-11-16T03:41:53.318Z,84.28
2022-11-16T03:49:57.915Z,83.82
2022-11-16T03:52:24.692Z,83.41
2022-11-16T03:54:51.210Z,84.99
2022-11-16T03:57:18.626Z,86.56
2022-11-16T04:00:09.194Z,88.76
2022-11-16T04:03:03.799Z,87.77
2022-11-16T04:05:57.987Z,85.60
2022-11-16T04:08:43.312Z,87.47
2022-11-16T04:11:38.000Z,88.27
2022-11-16T04:14:23.938Z,88.25
2022-11-16T04:17:09.295Z,86.91
2022-11-16T04:19:58.187Z,86.57
2022-11-16T04:22:51.721Z,89.74
2022-11-16T04:25:27.913Z,89.05
2022-11-16T04:28:13.248Z,89.56
2022-11-16T04:31:08.691Z,87.23
2022-11-16T04:33:54.247Z,86.45
2022-11-16T04:40:13.966Z,86.48
2022-11-16T04:42:40.537Z,85.47
2022-11-16T04:45:26.210Z,85.57
2022-11-16T04:47:53.702Z,85.21
2022-11-16T04:50:20.729Z,84.40
2022-11-16T05:50:17.903Z,81.13
2022-11-16T05:52:44.527Z,81.60
2022-11-16T05:55:11.072Z,84.76
2022-11-16T05:57:37.614Z,82.53
2022-11-16T06:00:04.987Z,81.62
2022-11-16T06:02:34.966Z,81.39
2022-11-16T06:05:02.126Z,81.34
2022-11-16T06:07:28.980Z,81.06
2022-11-16T06:09:55.527Z,83.85
2022-11-16T06:12:22.065Z,83.82
2022-11-16T06:14:48.595Z,85.88
2022-11-16T06:17:15.162Z,83.59
2022-11-16T06:19:42.027Z,83.46
2022-11-16T06:22:08.577Z,83.69
2022-11-16T06:24:35.116Z,81.59
2022-11-16T06:37:28.803Z,84.81
2022-11-16T06:39:55.381Z,85.68
2022-11-16T06:42:22.071Z,84.04
2022-11-16T06:44:48.581Z,82.31
2022-11-16T06:47:15.251Z,81.05
2022-11-16T06:49:41.891Z,82.09
2022-11-16T06:54:49.854Z,82.28
2022-11-16T06:57:16.437Z,88.06
2022-11-16T06:59:42.989Z,89.51
2022-11-16T07:02:13.004Z,85.22
2022-11-16T07:04:39.969Z,83.93
2022-11-16T07:07:06.567Z,86.11
2022-11-16T07:09:33.271Z,84.62
2022-11-16T07:11:59.803Z,83.22
2022-11-16T07:14:26.332Z,86.75
2022-11-16T07:16:59.058Z,85.87
2022-11-16T07:19:26.557Z,82.93
2022-11-16T07:21:53.132Z,81.32
2022-11-16T07:24:19.664Z,80.83
2022-11-16T07:26:46.204Z,81.92
2022-11-16T07:29:13.978Z,80.76
2022-11-16T07:31:40.751Z,83.35
2022-11-16T07:34:07.567Z,82.01
2022-11-16T07:36:34.137Z,84.03
2022-11-16T07:39:00.800Z,82.51
2022-11-16T07:41:27.356Z,81.85
2022-11-16T07:43:53.968Z,84.69
2022-11-16T07:46:47.414Z,82.43
2022-11-16T07:49:17.975Z,82.15
2022-11-16T07:51:45.751Z,80.93
2022-11-16T07:54:15.785Z,81.43
2022-11-16T07:56:42.639Z,81.21
2022-11-16T07:59:09.792Z,80.95
2022-11-16T08:01:36.368Z,81.45
2022-11-16T08:04:03.234Z,81.67
2022-11-16T08:06:31.654Z,80.78
2022-11-16T08:08:59.367Z,79.93
2022-11-16T08:11:26.471Z,80.20
2022-11-16T08:13:56.102Z,79.57
2022-11-16T08:16:23.149Z,79.56
2022-11-16T08:18:49.811Z,80.89
2022-11-16T08:21:17.746Z,80.79
2022-11-16T08:23:45.240Z,80.18
2022-11-16T08:26:17.426Z,80.79
2022-11-16T08:28:45.756Z,79.61
2022-11-16T08:31:18.043Z,78.65
2022-11-16T08:41:57.858Z,79.33
2022-11-16T08:44:27.472Z,81.00
2022-11-16T08:46:54.039Z,80.01
2022-11-16T08:49:20.577Z,81.06
2022-11-16T08:51:47.127Z,82.52
2022-11-16T08:56:54.867Z,80.21
2022-11-16T08:59:21.395Z,83.15
2022-11-16T09:01:50.025Z,80.86
2022-11-16T09:04:19.824Z,79.62
2022-11-16T09:06:46.397Z,80.83
2022-11-16T09:09:28.138Z,79.46
2022-11-16T09:12:25.500Z,80.35
2022-11-16T09:15:06.025Z,79.24
2022-11-16T09:17:32.682Z,78.59
2022-11-16T09:19:59.231Z,78.52
2022-11-16T09:22:26.091Z,79.76
2022-11-16T09:24:52.658Z,82.78
2022-11-16T09:27:19.392Z,83.21
2022-11-16T09:29:45.941Z,81.22
2022-11-16T09:32:12.494Z,86.18
2022-11-16T09:34:39.051Z,85.44
2022-11-16T09:37:05.642Z,83.82
2022-11-16T09:39:32.981Z,81.75
2022-11-16T09:42:08.375Z,81.08
2022-11-16T09:50:56.475Z,83.12
2022-11-16T09:53:38.641Z,82.15
2022-11-16T09:56:07.779Z,82.33
2022-11-16T09:58:52.266Z,84.71
2022-11-16T10:01:41.363Z,82.23
2022-11-16T10:04:39.882Z,82.13
2022-11-16T10:07:09.239Z,81.97
2022-11-16T10:09:36.312Z,79.69
2022-11-16T10:12:06.692Z,84.81
2022-11-16T10:18:51.940Z,85.39
2022-11-16T10:21:47.413Z,84.51
2022-11-16T10:24:24.004Z,81.58
2022-11-16T10:27:08.898Z,80.24
2022-11-16T10:29:51.331Z,82.49
2022-11-16T10:32:56.349Z,80.92
2022-11-16T10:35:27.083Z,80.36
2022-11-16T10:37:54.908Z,80.46
2022-11-16T10:40:26.159Z,80.45
2022-11-16T10:43:42.671Z,79.01
2022-11-16T10:47:07.319Z,78.47
2022-11-16T10:49:44.303Z,78.63
2022-11-16T10:52:10.844Z,78.76
2022-11-16T10:54:42.877Z,80.12
2022-11-16T10:57:14.117Z,81.09
2022-11-16T10:59:59.180Z,80.55
2022-11-16T11:07:39.804Z,81.12
2022-11-16T11:10:23.643Z,82.09
2022-11-16T11:13:02.412Z,84.02
2022-11-16T11:15:28.982Z,81.25
2022-11-16T11:18:48.658Z,79.83
2022-11-16T11:21:49.351Z,79.99
2022-11-16T11:24:43.520Z,82.92
2022-11-16T11:27:07.283Z,80.47
2022-11-16T11:29:38.608Z,80.59
2022-11-16T11:32:19.315Z,80.53
2022-11-16T11:34:53.038Z,79.88
2022-11-16T11:46:15.558Z,79.57
2022-11-16T11:49:02.343Z,78.11
2022-11-16T11:51:37.107Z,77.28
2022-11-16T11:57:26.939Z,77.30
2022-11-16T11:59:54.921Z,78.71
2022-11-16T12:03:02.924Z,79.38
2022-11-16T12:05:50.308Z,78.32
2022-11-16T12:11:50.639Z,77.58
2022-11-16T12:14:40.640Z,77.52
2022-11-16T12:17:29.129Z,77.98
2022-11-16T12:20:16.693Z,83.15
2022-11-16T12:23:46.582Z,80.78
2022-11-16T12:26:29.807Z,80.67
2022-11-16T12:28:56.181Z,81.88
2022-11-16T12:31:41.737Z,79.95
2022-11-16T12:34:20.284Z,82.42
2022-11-16T12:37:09.910Z,81.94
2022-11-16T12:47:50.695Z,84.76
2022-11-16T12:50:32.584Z,85.20
2022-11-16T12:57:01.820Z,82.36
2022-11-16T12:59:42.507Z,81.88
2022-11-16T13:02:36.112Z,82.38
2022-11-16T13:05:15.622Z,82.81
2022-11-16T13:07:48.567Z,82.80
2022-11-16T13:10:17.723Z,81.84
2022-11-16T13:12:47.694Z,82.09
2022-11-16T13:15:20.668Z,84.45
2022-11-16T13:17:51.583Z,82.25
2022-11-16T13:20:32.380Z,82.13
2022-11-16T13:23:12.076Z,84.81
2022-11-16T13:26:03.799Z,85.05
2022-11-16T13:29:04.474Z,85.36
2022-11-16T13:31:39.527Z,85.69
2022-11-16T13:34:14.380Z,86.79
2022-11-16T13:36:45.388Z,86.48
2022-11-16T13:39:21.564Z,83.93
2022-11-16T13:42:07.387Z,86.22
2022-11-16T13:44:34.741Z,88.46
2022-11-16T13:47:05.843Z,87.25
2022-11-16T13:49:40.920Z,87.59
2022-11-16T13:52:40.976Z,85.74
2022-11-16T13:55:13.810Z,84.85
2022-11-16T13:57:51.973Z,85.76
2022-11-16T14:00:31.379Z,85.57
2022-11-16T14:03:16.583Z,87.33
2022-11-16T14:05:45.174Z,86.53
2022-11-16T14:08:24.045Z,84.44
2022-11-16T14:10:50.499Z,84.61
2022-11-16T14:13:38.289Z,83.37
2022-11-16T14:16:19.839Z,85.14
2022-11-16T14:18:54.490Z,83.51
2022-11-16T14:21:36.056Z,82.49
2022-11-16T14:24:48.213Z,81.19
2022-11-16T14:27:31.071Z,82.83
2022-11-16T14:30:18.752Z,83.97
2022-11-16T14:32:52.371Z,82.30
2022-11-16T14:35:39.313Z,82.46
2022-11-16T14:38:30.340Z,83.81
2022-11-16T14:40:59.850Z,84.45
2022-11-16T14:43:34.355Z,84.15
2022-11-16T14:46:07.758Z,82.82
2022-11-16T14:48:41.777Z,84.20
2022-11-16T14:51:14.545Z,84.40
2022-11-16T14:53:46.686Z,82.96
2022-11-16T14:56:15.483Z,83.81
2022-11-16T14:59:00.131Z,84.46
2022-11-16T15:01:39.359Z,83.96
2022-11-16T15:04:12.658Z,82.85
2022-11-16T15:06:49.900Z,82.56
2022-11-16T15:09:33.103Z,82.71
2022-11-16T15:12:23.383Z,81.78
2022-11-16T15:14:52.795Z,81.23
2022-11-16T15:17:22.561Z,80.81
2022-11-16T15:19:57.557Z,80.96
2022-11-16T15:22:29.879Z,85.93
2022-11-16T15:25:01.568Z,85.12
2022-11-16T15:30:20.530Z,83.50
2022-11-16T15:32:49.095Z,83.21
2022-11-16T15:35:18.811Z,82.37
2022-11-16T15:37:45.470Z,83.04
2022-11-16T15:40:13.006Z,84.15
2022-11-16T15:43:14.889Z,83.12
2022-11-16T15:45:52.346Z,83.40
2022-11-16T15:48:23.219Z,83.68
2022-11-16T15:51:07.993Z,85.03
2022-11-16T15:53:39.487Z,84.50
2022-11-16T15:56:10.072Z,84.34
2022-11-16T15:58:40.235Z,83.13
2022-11-16T16:03:53.887Z,83.47
2022-11-16T16:06:53.017Z,84.84
2022-11-16T16:09:31.546Z,83.19
2022-11-16T16:15:44.879Z,85.05
2022-11-16T16:18:39.751Z,85.59
2022-11-16T16:31:41.019Z,81.40
2022-11-16T16:34:11.500Z,80.96
2022-11-16T16:36:38.052Z,80.98
2022-11-16T16:39:04.595Z,80.57
2022-11-16T16:41:31.130Z,81.66
2022-11-16T16:43:57.690Z,80.94
2022-11-16T16:46:24.227Z,81.96
2022-11-16T16:48:50.917Z,81.83
2022-11-16T16:51:38.926Z,81.84
2022-11-16T16:54:05.771Z,81.88
2022-11-16T16:56:32.302Z,81.75
2022-11-16T16:58:58.831Z,81.49
2022-11-16T17:01:26.613Z,81.15
2022-11-16T17:03:53.520Z,81.47
2022-11-16T17:17:01.046Z,81.29
2022-11-16T17:19:28.693Z,81.72
2022-11-16T17:22:11.736Z,82.32
2022-11-16T17:24:38.768Z,81.92
2022-11-16T17:27:05.368Z,82.54
2022-11-16T17:29:35.163Z,82.74
2022-11-16T17:32:02.406Z,82.56
2022-11-16T17:34:29.130Z,81.86
2022-11-16T17:36:56.001Z,80.99
2022-11-16T17:39:24.816Z,82.11
2022-11-16T17:41:51.553Z,81.81
2022-11-16T17:44:21.867Z,82.33
2022-11-16T17:46:50.004Z,82.62
2022-11-16T17:49:16.516Z,81.78
2022-11-16T17:51:43.238Z,82.16
2022-11-16T17:54:09.853Z,82.41
2022-11-16T17:56:36.640Z,81.66
2022-11-16T17:59:03.458Z,81.75
2022-11-16T18:01:30.262Z,82.06
2022-11-16T18:03:57.213Z,82.51
2022-11-16T18:06:25.246Z,81.61
2022-11-16T18:08:52.305Z,81.11
2022-11-16T18:11:23.840Z,80.30
2022-11-16T18:13:57.110Z,81.07
2022-11-16T18:16:26.519Z,81.80
2022-11-16T18:19:04.931Z,81.43
2022-11-16T18:21:33.838Z,80.77
2022-11-16T18:24:00.659Z,80.70
2022-11-16T18:26:27.204Z,80.81
2022-11-16T18:28:54.142Z,80.40
2022-11-16T18:31:23.296Z,79.60
2022-11-16T18:34:08.496Z,79.40
2022-11-16T18:36:35.061Z,81.21
2022-11-16T18:39:01.635Z,80.96
2022-11-16T18:41:29.665Z,80.85
2022-11-16T18:43:58.949Z,81.52
2022-11-16T18:46:27.638Z,81.19
2022-11-16T18:48:54.997Z,80.07
2022-11-16T18:51:22.577Z,79.17
2022-11-16T18:53:52.167Z,78.89
2022-11-16T18:56:19.431Z,80.58
2022-11-16T19:04:17.004Z,79.55
2022-11-16T19:06:43.570Z,81.20
2022-11-16T19:09:10.455Z,80.18
2022-11-16T19:11:37.136Z,80.63
2022-11-16T19:14:04.763Z,79.66
2022-11-16T19:16:31.769Z,79.66
2022-11-16T19:18:58.380Z,81.17
2022-11-16T19:34:41.046Z,80.69
2022-11-16T19:37:07.661Z,80.49
2022-11-16T19:39:34.238Z,80.14
2022-11-16T19:42:00.846Z,80.05
2022-11-16T19:44:27.393Z,78.97
2022-11-16T19:46:54.488Z,78.21
2022-11-16T19:49:21.835Z,77.87
2022-11-16T19:51:49.149Z,77.75
2022-11-16T19:54:15.703Z,78.05
2022-11-16T19:56:43.047Z,78.37
2022-11-16T19:59:10.134Z,78.60
2022-11-16T20:01:36.726Z,78.08
2022-11-16T20:04:04.270Z,78.25
2022-11-16T20:06:36.319Z,78.65
2022-11-16T20:20:11.132Z,77.44
2022-11-16T20:25:13.174Z,77.76
2022-11-16T20:27:39.712Z,76.97
2022-11-16T20:30:09.681Z,76.92
2022-11-16T20:32:36.523Z,77.03
2022-11-16T20:35:34.110Z,76.42
2022-11-16T20:38:41.455Z,76.11
2022-11-16T20:41:13.098Z,75.89
2022-11-16T20:43:40.784Z,75.93
2022-11-16T20:46:12.581Z,75.66
2022-11-16T20:48:40.659Z,75.56
2022-11-16T20:51:08.792Z,75.45
2022-11-16T20:53:35.608Z,75.36
2022-11-16T20:56:03.709Z,75.29
2022-11-16T20:58:31.516Z,75.32
2022-11-16T21:01:02.722Z,75.53
2022-11-16T21:03:29.637Z,75.55
2022-11-16T21:05:59.080Z,75.84
2022-11-16T21:08:26.441Z,75.85
2022-11-16T21:10:53.796Z,75.58
2022-11-16T21:13:39.325Z,75.46
2022-11-16T21:16:08.540Z,76.06
2022-11-16T21:18:35.096Z,75.96
2022-11-16T21:21:04.024Z,75.97
2022-11-16T21:26:31.085Z,76.83
2022-11-16T21:28:58.861Z,75.99
2022-11-16T21:31:29.670Z,75.76
2022-11-16T21:33:56.842Z,75.17
2022-11-16T21:36:25.628Z,74.99
2022-11-16T21:43:17.436Z,74.92
2022-11-16T21:45:45.817Z,74.67
2022-11-16T21:48:13.131Z,74.49
2022-11-16T21:55:50.183Z,74.59
2022-11-16T22:01:00.359Z,74.57
2022-11-16T22:03:31.840Z,74.44
2022-11-16T22:06:19.663Z,74.21
2022-11-16T22:08:47.256Z,74.13
2022-11-16T22:11:15.416Z,74.11
2022-11-16T22:14:31.924Z,74.24
2022-11-16T22:17:55.140Z,74.27
2022-11-16T22:20:21.900Z,74.15
2022-11-16T22:22:48.880Z,73.96
2022-11-16T22:25:15.869Z,74.03
2022-11-16T22:28:05.938Z,74.02
2022-11-16T22:30:29.091Z,73.96
2022-11-16T22:35:46.889Z,74.27
2022-11-16T22:38:13.438Z,74.02
2022-11-16T22:40:39.977Z,74.67
2022-11-16T22:43:06.746Z,74.75
2022-11-16T22:49:20.720Z,74.80
2022-11-16T22:51:47.255Z,75.02
2022-11-16T22:54:15.610Z,75.16
2022-11-16T22:56:43.127Z,74.98
2022-11-16T22:59:10.035Z,75.30
2022-11-16T23:01:37.479Z,75.21
2022-11-16T23:04:04.630Z,75.14
2022-11-16T23:06:31.403Z,75.16
2022-11-16T23:08:58.070Z,75.53
2022-11-16T23:11:55.443Z,76.08
2022-11-16T23:14:40.468Z,76.15
2022-11-16T23:17:07.020Z,75.78
2022-11-16T23:19:53.014Z,75.44
2022-11-16T23:22:40.272Z,75.54
2022-11-16T23:25:29.177Z,74.87
2022-11-16T23:28:01.052Z,74.82
2022-11-16T23:30:27.617Z,75.05
